Time;durP1;ratioP1;P1;durP2;ratioP2;P2;SDS_P1;SDS_P2;PMS_P1;PMS_P2;Temp;Humidity;BMP_temperature;BMP_pressure;BME280_temperature;BME280_humidity;BME280_pressure;Samples;Min_cycle;Max_cycle;Signal;HPM_P1;HPM_P2
2022/03/22 00:02:18;;;;;;;10.37;5.90;;;;;;;4.92;38.79;97594.81;10415996;28;20208;-58
2022/03/22 00:07:18;;;;;;;13.60;7.10;;;;;;;4.91;38.67;97600.91;10417197;28;20226;-57
2022/03/22 00:12:19;;;;;;;11.43;6.93;;;;;;;4.94;38.37;97599.91;10416211;28;20355;-60
2022/03/22 00:17:20;;;;;;;11.17;6.30;;;;;;;4.94;38.03;97592.09;10416471;28;20607;-59
2022/03/22 00:22:21;;;;;;;11.83;6.10;;;;;;;4.70;38.82;97620.47;10415472;28;20247;-57
2022/03/22 00:27:22;;;;;;;12.50;5.93;;;;;;;4.77;38.75;97622.56;10415918;28;20251;-59
2022/03/22 00:32:22;;;;;;;16.13;7.33;;;;;;;4.75;38.27;97602.84;10394474;28;20263;-59
2022/03/22 00:37:23;;;;;;;13.20;6.33;;;;;;;4.56;38.64;97610.97;10412877;28;20193;-60
2022/03/22 00:42:23;;;;;;;9.47;5.93;;;;;;;4.49;38.96;97607.94;10414831;28;20244;-59
2022/03/22 00:47:24;;;;;;;13.57;6.47;;;;;;;4.56;38.54;97601.41;10414711;28;20220;-58
2022/03/22 00:52:26;;;;;;;11.70;6.23;;;;;;;4.32;39.69;97634.06;10414559;28;20195;-60
2022/03/22 00:57:27;;;;;;;10.50;5.33;;;;;;;4.39;39.31;97622.41;10413666;28;20979;-60
2022/03/22 01:02:28;;;;;;;10.13;5.20;;;;;;;4.24;39.69;97639.72;10413711;28;20196;-54
2022/03/22 01:07:29;;;;;;;10.37;6.60;;;;;;;4.19;39.87;97642.59;10413715;28;20227;-53
2022/03/22 01:12:29;;;;;;;12.50;7.80;;;;;;;3.87;40.82;97660.94;10413733;28;20203;-59
2022/03/22 01:17:31;;;;;;;12.73;7.00;;;;;;;3.94;40.45;97656.22;10413855;28;20200;-59
2022/03/22 01:22:32;;;;;;;13.87;5.80;;;;;;;3.96;40.50;97650.94;10412601;28;20242;-59
2022/03/22 01:27:32;;;;;;;12.90;6.40;;;;;;;3.98;40.19;97644.75;10413461;28;20561;-59
2022/03/22 01:32:34;;;;;;;9.17;5.20;;;;;;;3.93;40.55;97651.97;10412578;28;20769;-57
2022/03/22 01:37:35;;;;;;;9.77;6.17;;;;;;;3.95;40.11;97633.72;10412740;28;20185;-58
2022/03/22 01:42:36;;;;;;;14.27;6.47;;;;;;;3.75;41.10;97672.88;10412899;28;20239;-54
2022/03/22 01:47:38;;;;;;;15.40;7.53;;;;;;;3.80;40.46;97651.88;10412274;28;20220;-58
2022/03/22 01:52:40;;;;;;;12.33;6.37;;;;;;;3.65;40.93;97658.78;10412412;28;20203;-59
2022/03/22 01:57:41;;;;;;;11.30;6.27;;;;;;;3.56;41.24;97670.50;10411320;28;20806;-59
2022/03/22 02:08:06;;;;;;;9.67;5.33;;;;;;;3.43;41.17;97664.38;10411262;28;20224;-53
2022/03/22 02:13:06;;;;;;;13.97;6.90;;;;;;;3.60;40.88;97652.19;10410765;28;20263;-53
2022/03/22 02:18:07;;;;;;;14.33;6.70;;;;;;;3.56;40.33;97646.38;10411414;28;20212;-55
2022/03/22 02:23:40;;;;;;;15.30;6.47;;;;;;;3.38;41.01;97674.16;10410939;28;20212;-53
2022/03/22 02:28:42;;;;;;;10.70;6.97;;;;;;;3.44;40.64;97658.25;10401806;28;20319;-52
2022/03/22 02:33:43;;;;;;;9.87;5.67;;;;;;;3.20;42.13;97676.03;10410914;28;20203;-52
2022/03/22 02:38:43;;;;;;;15.53;8.27;;;;;;;2.92;43.47;97708.63;10410861;28;20279;-52
2022/03/22 02:43:45;;;;;;;13.43;6.27;;;;;;;2.95;42.59;97705.88;10410514;28;20197;-54
2022/03/22 02:48:45;;;;;;;19.07;7.03;;;;;;;2.63;44.07;97743.84;10410447;28;20778;-53
2022/03/22 02:53:46;;;;;;;14.27;7.50;;;;;;;2.75;43.46;97742.38;10410546;28;20296;-52
2022/03/22 02:58:47;;;;;;;7.43;4.67;;;;;;;3.01;42.96;97699.53;10410229;28;20212;-53
2022/03/22 03:03:47;;;;;;;10.20;5.93;;;;;;;2.79;43.64;97725.78;10410605;28;20208;-53
2022/03/22 03:08:47;;;;;;;11.40;7.00;;;;;;;2.69;43.73;97730.59;10408357;28;20333;-58
2022/03/22 03:19:07;;;;;;;13.13;6.83;;;;;;;2.95;42.96;97736.94;10410296;28;20216;-59
2022/03/22 03:24:07;;;;;;;15.43;7.37;;;;;;;3.02;42.65;97724.50;10410073;28;20192;-57
2022/03/22 03:29:09;;;;;;;12.60;7.37;;;;;;;2.95;42.72;97743.88;10416873;28;20686;-60
2022/03/22 03:34:09;;;;;;;11.50;6.97;;;;;;;2.84;43.19;97754.81;10417650;28;20249;-57
2022/03/22 03:39:11;;;;;;;10.10;6.23;;;;;;;2.75;43.61;97763.88;10417334;28;20358;-60
2022/03/22 03:49:37;;;;;;;11.00;6.87;;;;;;;2.67;43.89;97771.25;10417360;28;20217;-57
2022/03/22 03:54:38;;;;;;;15.20;7.40;;;;;;;2.66;43.47;97775.59;10416751;28;20717;-56
2022/03/22 03:59:40;;;;;;;16.50;8.57;;;;;;;2.39;44.36;97785.59;10416304;28;20338;-56
2022/03/22 04:04:41;;;;;;;14.67;7.57;;;;;;;2.50;44.28;97783.28;10416108;28;20594;-58
2022/03/22 04:09:42;;;;;;;13.63;7.67;;;;;;;2.13;45.74;97826.53;10416214;28;20219;-58
2022/03/22 04:14:43;;;;;;;11.83;7.73;;;;;;;1.86;46.32;97835.66;10416287;28;20193;-55
2022/03/22 04:19:45;;;;;;;16.07;7.67;;;;;;;1.71;47.25;97857.88;10415708;28;20266;-56
2022/03/22 04:24:45;;;;;;;16.93;8.17;;;;;;;1.23;49.03;97896.25;10415802;28;20331;-57
2022/03/22 04:35:05;;;;;;;17.07;8.43;;;;;;;0.91;50.33;97939.78;10415787;28;20270;-55
2022/03/22 04:40:07;;;;;;;28.97;15.17;;;;;;;0.65;50.83;97935.72;10414232;28;20314;-58
2022/03/22 04:45:08;;;;;;;16.30;9.63;;;;;;;0.24;52.45;97980.31;10447797;23;20242;-60
2022/03/22 04:50:09;;;;;;;20.23;10.90;;;;;;;-0.09;53.46;98010.81;10415412;28;20755;-60
2022/03/22 05:00:28;;;;;;;19.57;9.77;;;;;;;-0.74;56.77;98086.03;10414061;28;20188;-60
2022/03/22 05:10:50;;;;;;;14.77;8.37;;;;;;;-1.33;60.21;98158.25;10414245;28;20561;-61
2022/03/22 05:15:51;;;;;;;16.00;8.13;;;;;;;-1.71;61.87;98173.09;10413796;28;20205;-59
2022/03/22 05:20:51;;;;;;;16.27;8.83;;;;;;;-2.07;63.37;98202.31;10413744;28;20196;-61
2022/03/22 05:25:51;;;;;;;20.30;10.93;;;;;;;-2.14;64.66;98211.09;10413571;28;20232;-60
2022/03/22 05:30:52;;;;;;;14.93;7.80;;;;;;;-1.95;63.64;98179.78;10413088;28;20292;-60
2022/03/22 05:35:52;;;;;;;17.73;7.90;;;;;;;-1.94;64.25;98194.31;10413371;28;20208;-61
2022/03/22 05:40:53;;;;;;;13.97;8.03;;;;;;;-1.93;64.71;98186.56;10412697;28;20193;-57
2022/03/22 05:45:54;;;;;;;15.63;8.07;;;;;;;-1.90;65.09;98186.47;10412749;28;20694;-61
2022/03/22 05:50:55;;;;;;;20.97;8.03;;;;;;;-2.10;66.43;98204.13;10411683;28;20335;-61
2022/03/22 05:55:56;;;;;;;18.30;8.20;;;;;;;-1.98;66.18;98204.66;10412204;28;20208;-62
2022/03/22 06:00:56;;;;;;;19.37;8.43;;;;;;;-2.00;65.71;98192.75;10412165;28;20188;-60
2022/03/22 06:05:57;;;;;;;20.03;10.17;;;;;;;-2.03;66.62;98205.66;10411763;28;20315;-60
2022/03/22 06:10:57;;;;;;;18.10;8.10;;;;;;;-1.60;66.57;98188.22;10412080;28;20199;-57
2022/03/22 06:15:58;;;;;;;17.20;8.47;;;;;;;-0.58;63.98;98158.44;10411712;28;20209;-59
2022/03/22 06:20:58;;;;;;;17.50;9.60;;;;;;;0.52;60.54;98098.66;10402565;28;20213;-61
2022/03/22 06:25:59;;;;;;;23.03;10.90;;;;;;;1.07;57.28;98030.25;10403346;28;20299;-59
2022/03/22 06:31:00;;;;;;;20.47;9.43;;;;;;;1.68;55.96;98016.41;10375481;28;20263;-58
2022/03/22 06:36:00;;;;;;;22.30;9.63;;;;;;;2.34;53.38;97957.41;10370528;28;20248;-57
2022/03/22 06:41:00;;;;;;;15.70;8.03;;;;;;;2.84;52.44;97941.13;10370279;28;20192;-57
2022/03/22 06:46:01;;;;;;;25.13;13.53;;;;;;;3.33;52.04;97955.91;10370066;28;20252;-60
2022/03/22 06:51:01;;;;;;;19.77;10.67;;;;;;;4.04;50.27;97910.59;10370265;28;20200;-56
2022/03/22 06:56:01;;;;;;;19.40;7.60;;;;;;;4.97;47.15;97855.00;10370038;28;20205;-61
2022/03/22 07:01:02;;;;;;;14.90;7.50;;;;;;;6.30;45.57;97849.28;10373436;28;20723;-58
2022/03/22 07:06:03;;;;;;;9.73;6.37;;;;;;;5.76;44.83;97812.88;10378012;28;20667;-62
2022/03/22 07:16:27;;;;;;;11.90;7.20;;;;;;;8.02;39.58;97723.41;10416196;28;20212;-61
2022/03/22 07:21:29;;;;;;;13.30;7.33;;;;;;;7.99;38.48;97716.66;10418189;28;20275;-62
2022/03/22 07:26:30;;;;;;;16.03;7.03;;;;;;;9.08;37.31;97701.34;10418236;28;20717;-62
2022/03/22 07:31:30;;;;;;;11.53;7.17;;;;;;;9.29;37.40;97719.72;10417804;28;20287;-61
2022/03/22 07:36:31;;;;;;;13.23;7.80;;;;;;;9.97;35.52;97699.34;10417923;28;20193;-56
2022/03/22 07:41:31;;;;;;;15.90;7.67;;;;;;;9.94;35.90;97722.31;10417646;28;20651;-62
2022/03/22 07:46:33;;;;;;;11.43;7.53;;;;;;;9.84;35.95;97724.03;10415201;28;20387;-54
2022/03/22 07:56:52;;;;;;;12.70;8.30;;;;;;;11.71;32.42;97659.78;10407864;28;20196;-59
2022/03/22 08:01:52;;;;;;;12.93;6.88;;;;;;;12.41;31.81;97653.41;10414316;28;20208;-60
2022/03/22 08:06:52;;;;;;;11.70;7.78;;;;;;;12.82;30.47;97627.63;10414246;28;20273;-57
2022/03/22 08:11:53;;;;;;;10.18;6.15;;;;;;;10.81;28.61;97501.78;10413599;28;20270;-58
2022/03/22 08:16:53;;;;;;;8.60;5.77;;;;;;;9.97;29.93;97528.38;10414355;28;20685;-59
2022/03/22 08:21:54;;;;;;;12.40;6.33;;;;;;;10.55;30.21;97564.41;10414368;28;20240;-59
2022/03/22 08:26:54;;;;;;;8.90;6.37;;;;;;;11.68;28.06;97539.31;10412531;28;20239;-61
2022/03/22 08:31:55;;;;;;;8.52;5.72;;;;;;;12.62;27.43;97535.72;10413561;28;20216;-61
2022/03/22 08:36:55;;;;;;;9.80;6.40;;;;;;;11.69;27.77;97535.72;10413263;28;20797;-58
2022/03/22 08:41:55;;;;;;;10.80;6.70;;;;;;;12.01;27.98;97573.94;10411917;28;20715;-57
2022/03/22 08:46:57;;;;;;;10.60;6.20;;;;;;;12.29;27.83;97571.31;10413201;28;20745;-55
2022/03/22 08:51:57;;;;;;;9.13;6.90;;;;;;;10.77;28.38;97539.72;10412233;28;20220;-59
2022/03/22 08:56:57;;;;;;;8.80;6.78;;;;;;;10.68;29.13;97564.94;10413005;28;20193;-54
2022/03/22 09:01:58;;;;;;;11.93;7.53;;;;;;;10.37;30.42;97598.25;10411130;28;20691;-58
2022/03/22 09:06:59;;;;;;;14.30;7.50;;;;;;;10.72;30.36;97641.53;10406968;28;20220;-62
2022/03/22 09:11:59;;;;;;;14.90;6.97;;;;;;;10.43;30.04;97602.97;10403604;28;20228;-61
2022/03/22 09:17:00;;;;;;;8.43;5.60;;;;;;;10.98;29.48;97623.50;10411610;28;20180;-57
2022/03/22 09:22:00;;;;;;;13.43;7.10;;;;;;;11.19;29.08;97620.75;10411868;28;20248;-60
2022/03/22 09:27:01;;;;;;;11.93;7.65;;;;;;;11.04;28.76;97603.75;10381847;28;20278;-62
2022/03/22 09:32:01;;;;;;;10.53;6.60;;;;;;;11.04;29.16;97595.88;10391221;28;20212;-61
2022/03/22 09:37:02;;;;;;;11.33;7.13;;;;;;;11.76;29.11;97617.34;10385814;28;20698;-59
2022/03/22 09:42:03;;;;;;;8.50;6.53;;;;;;;11.11;29.09;97589.13;10370373;28;20241;-55
2022/03/22 09:47:04;;;;;;;13.00;7.43;;;;;;;12.13;27.57;97598.22;10377810;28;20317;-58
2022/03/22 09:52:05;;;;;;;15.40;7.60;;;;;;;12.15;28.26;97605.97;10369704;28;20217;-62
2022/03/22 09:57:05;;;;;;;10.40;7.50;;;;;;;11.15;28.69;97572.16;10368836;28;20193;-57
2022/03/22 10:02:06;;;;;;;11.80;6.93;;;;;;;12.37;27.31;97563.53;10369473;28;20264;-60
2022/03/22 10:07:08;;;;;;;10.25;6.78;;;;;;;12.47;28.05;97597.66;10401773;28;20213;-63
2022/03/22 10:12:10;;;;;;;11.88;7.88;;;;;;;12.21;27.35;97547.59;10374363;28;20240;-57
2022/03/22 10:17:15;;;;;;;9.70;7.25;;;;;;;11.97;28.12;97563.88;10368844;28;20202;-59
2022/03/22 10:22:17;;;;;;;12.73;7.30;;;;;;;12.80;27.17;97582.22;10368365;28;20329;-59
2022/03/22 10:27:26;;;;;;;9.90;6.53;;;;;;;13.24;26.47;97570.97;10389949;28;20224;-60
2022/03/22 10:32:40;;;;;;;10.93;7.43;;;;;;;14.85;26.35;97608.25;10402643;28;20209;-61
2022/03/22 10:37:45;;;;;;;14.15;8.70;;;;;;;14.32;26.55;97592.56;10386295;28;20196;-58
2022/03/22 10:42:45;;;;;;;10.90;7.30;;;;;;;14.28;25.93;97549.06;10392826;28;20232;-59
2022/03/22 10:47:47;;;;;;;10.38;7.43;;;;;;;14.25;26.87;97599.44;10426166;23;20267;-60
2022/03/22 10:52:52;;;;;;;11.77;7.65;;;;;;;14.47;26.48;97586.69;10408298;28;20193;-62
2022/03/22 10:57:55;;;;;;;10.68;6.90;;;;;;;16.88;24.88;97609.13;10407760;28;20659;-62
2022/03/22 11:02:56;;;;;;;13.13;7.95;;;;;;;16.93;25.80;97643.84;10407886;28;20188;-62
2022/03/22 11:07:57;;;;;;;13.43;7.60;;;;;;;18.95;23.39;97587.56;10406991;28;20312;-62
2022/03/22 11:12:59;;;;;;;10.00;7.53;;;;;;;20.97;22.06;97581.56;10407578;28;20188;-61
2022/03/22 11:18:00;;;;;;;9.07;6.32;;;;;;;17.93;22.80;97480.44;10407638;28;20208;-60
2022/03/22 11:23:01;;;;;;;12.90;7.20;;;;;;;19.23;22.46;97524.72;10407816;28;20188;-57
2022/03/22 11:28:09;;;;;;;11.18;7.05;;;;;;;17.82;24.52;97572.66;10406989;28;20256;-57
2022/03/22 11:38:41;;;;;;;11.32;6.63;;;;;;;15.44;24.11;97439.19;10384097;28;20205;-59
2022/03/22 11:43:42;;;;;;;11.75;7.13;;;;;;;15.74;24.97;97492.22;10373544;28;20196;-58
2022/03/22 11:48:43;;;;;;;11.90;8.32;;;;;;;15.59;26.38;97584.53;10370519;28;20232;-59
2022/03/22 11:53:44;;;;;;;12.35;7.80;;;;;;;16.22;26.18;97604.94;10372006;28;20305;-60
2022/03/22 11:58:49;;;;;;;13.60;8.52;;;;;;;15.52;26.32;97564.06;10373666;28;20213;-59
2022/03/22 12:03:51;;;;;;;13.93;8.75;;;;;;;17.26;25.81;97609.22;10355835;28;20193;-59
2022/03/22 12:08:52;;;;;;;12.05;8.23;;;;;;;18.52;23.54;97554.59;10372843;28;20252;-62
2022/03/22 12:13:52;;;;;;;10.02;7.93;;;;;;;17.94;24.50;97559.78;10390864;28;20293;-58
2022/03/22 12:18:52;;;;;;;10.18;7.28;;;;;;;17.01;24.79;97527.31;10391115;28;20213;-61
2022/03/22 12:23:54;;;;;;;13.85;7.85;;;;;;;15.49;25.61;97502.84;10389436;28;20192;-61
2022/03/22 12:28:54;;;;;;;12.50;7.40;;;;;;;16.64;24.31;97506.88;10390689;28;20264;-62
2022/03/22 12:33:58;;;;;;;13.82;7.88;;;;;;;16.62;24.59;97515.00;10390268;28;20735;-61
2022/03/22 12:38:58;;;;;;;14.75;7.85;;;;;;;16.59;26.23;97582.28;10412320;28;20212;-59
2022/03/22 12:43:59;;;;;;;11.82;7.82;;;;;;;15.35;26.15;97517.56;10411432;28;20200;-61
2022/03/22 12:48:59;;;;;;;11.98;6.57;;;;;;;15.69;24.63;97467.13;10411125;28;20287;-61
2022/03/22 12:54:02;;;;;;;8.95;7.32;;;;;;;16.19;25.37;97517.22;10412081;28;20190;-61
2022/03/22 12:59:02;;;;;;;12.13;8.55;;;;;;;15.24;26.18;97492.34;10407950;28;20270;-62
2022/03/22 13:04:03;;;;;;;17.42;8.35;;;;;;;16.36;25.70;97545.22;10380516;28;21010;-61
2022/03/22 13:19:41;;;;;;;19.13;8.48;;;;;;;16.81;25.70;97561.31;10404439;28;20192;-60
2022/03/22 13:24:41;;;;;;;15.10;8.77;;;;;;;16.20;25.75;97518.84;10405674;28;20193;-60
2022/03/22 13:29:42;;;;;;;10.75;7.63;;;;;;;15.97;24.33;97453.53;10406848;28;20408;-62
2022/03/22 13:34:46;;;;;;;9.88;7.65;;;;;;;16.51;24.43;97465.97;10406529;28;20608;-61
2022/03/22 13:39:50;;;;;;;10.90;8.10;;;;;;;16.70;25.51;97525.50;10407562;28;20778;-61
2022/03/22 13:44:56;;;;;;;10.13;7.57;;;;;;;16.67;25.87;97531.16;10406949;28;20217;-62
2022/03/22 13:49:57;;;;;;;14.95;8.15;;;;;;;16.96;24.53;97481.22;10400957;28;20216;-61
2022/03/22 13:54:58;;;;;;;10.73;7.35;;;;;;;15.94;24.69;97443.31;10396585;28;20253;-59
2022/03/22 13:59:59;;;;;;;11.68;7.93;;;;;;;15.42;24.96;97431.44;10404422;28;20227;-61
2022/03/22 14:05:00;;;;;;;16.35;8.98;;;;;;;15.13;25.56;97446.00;10406823;28;20220;-59
2022/03/22 14:10:00;;;;;;;14.15;8.13;;;;;;;15.26;25.57;97442.81;10405260;28;20579;-60
2022/03/22 14:15:00;;;;;;;12.30;8.68;;;;;;;16.10;25.32;97474.13;10405954;28;20208;-60
2022/03/22 14:20:01;;;;;;;12.40;8.20;;;;;;;15.63;26.20;97469.66;10405479;28;20192;-60
2022/03/22 14:25:01;;;;;;;10.70;8.13;;;;;;;16.47;25.18;97462.00;10405216;28;20233;-60
2022/03/22 14:30:04;;;;;;;12.65;7.60;;;;;;;15.84;26.64;97511.38;10406311;28;20226;-59
2022/03/22 14:40:24;;;;;;;12.00;8.68;;;;;;;15.92;26.28;97484.13;10405611;28;20184;-60
2022/03/22 14:45:26;;;;;;;12.98;9.43;;;;;;;15.43;26.39;97464.72;10404953;28;20255;-58
2022/03/22 14:50:27;;;;;;;12.20;7.55;;;;;;;15.91;25.67;97467.44;10405907;28;20230;-56
2022/03/22 14:55:28;;;;;;;27.27;7.93;;;;;;;15.84;26.39;97471.75;10404185;28;20287;-58
2022/03/22 15:00:29;;;;;;;17.77;9.15;;;;;;;16.64;26.34;97518.28;10405493;28;20562;-56
2022/03/22 15:05:34;;;;;;;22.55;10.77;;;;;;;16.44;26.59;97496.75;10404855;28;20221;-58
2022/03/22 15:10:35;;;;;;;52.83;28.00;;;;;;;17.34;24.97;97484.69;10405468;28;20193;-59
2022/03/22 15:15:36;;;;;;;14.05;9.65;;;;;;;16.46;25.82;97462.19;10404196;28;20211;-60
2022/03/22 15:20:38;;;;;;;18.77;10.05;;;;;;;17.25;25.85;97501.66;10405075;28;20691;-60
2022/03/22 15:25:40;;;;;;;14.85;8.93;;;;;;;18.26;25.20;97507.38;10410972;28;21127;-61
2022/03/22 15:30:42;;;;;;;21.75;9.55;;;;;;;17.78;25.54;97497.13;10410131;28;20189;-59
2022/03/22 15:35:45;;;;;;;12.48;7.88;;;;;;;17.64;24.44;97437.00;10412393;28;20212;-62
2022/03/22 15:40:46;;;;;;;12.88;8.05;;;;;;;18.03;25.89;97523.41;10411996;28;20258;-61
2022/03/22 15:45:46;;;;;;;12.20;6.50;;;;;;;16.44;25.04;97398.88;10411074;28;20278;-60
2022/03/22 15:50:46;;;;;;;11.52;7.45;;;;;;;17.75;24.60;97449.81;10411370;28;20242;-60
2022/03/22 15:55:47;;;;;;;42.58;22.13;;;;;;;17.92;24.55;97439.03;10410287;28;20204;-59
2022/03/22 16:00:48;;;;;;;12.40;7.35;;;;;;;17.94;24.27;97437.81;10411376;28;20267;-58
2022/03/22 16:05:48;;;;;;;11.98;8.20;;;;;;;18.46;23.43;97417.38;10409820;28;20316;-58
2022/03/22 16:10:48;;;;;;;15.40;8.85;;;;;;;17.05;25.13;97429.84;10411176;28;20223;-58
2022/03/22 16:15:51;;;;;;;17.58;8.20;;;;;;;16.30;25.71;97399.66;10410304;28;20220;-54
2022/03/22 16:20:52;;;;;;;9.57;6.90;;;;;;;15.34;26.46;97413.78;10387363;28;20192;-56
2022/03/22 16:25:54;;;;;;;11.27;6.85;;;;;;;14.27;27.81;97419.09;10407865;28;20383;-57
2022/03/22 16:30:55;;;;;;;11.80;6.93;;;;;;;13.88;28.51;97427.53;10408424;28;20729;-57
2022/03/22 16:41:14;;;;;;;11.65;7.13;;;;;;;13.46;29.69;97470.50;10408794;28;20196;-60
2022/03/22 16:46:15;;;;;;;15.73;7.10;;;;;;;13.41;29.82;97477.19;10409020;28;20319;-58
2022/03/22 16:51:15;;;;;;;11.07;7.07;;;;;;;13.18;30.43;97503.97;10408808;28;20267;-60
2022/03/22 16:56:16;;;;;;;11.63;6.63;;;;;;;12.89;32.13;97554.22;10409399;28;20271;-60
2022/03/22 17:01:16;;;;;;;12.95;7.13;;;;;;;12.16;35.06;97647.84;10407254;28;20242;-60
2022/03/22 17:06:17;;;;;;;13.00;7.55;;;;;;;11.26;37.04;97678.72;10408359;28;20323;-60
2022/03/22 17:11:18;;;;;;;13.05;7.82;;;;;;;10.66;39.02;97742.47;10406150;28;21031;-57
2022/03/22 17:16:20;;;;;;;13.80;8.50;;;;;;;9.92;40.34;97774.81;10396381;28;20598;-59
2022/03/22 17:21:20;;;;;;;14.87;8.83;;;;;;;9.70;40.46;97791.41;10401511;28;20189;-58
2022/03/22 17:26:21;;;;;;;17.50;9.00;;;;;;;9.27;42.12;97826.22;10408379;28;20220;-56
2022/03/22 17:31:23;;;;;;;17.63;10.40;;;;;;;8.66;44.74;97886.66;10408673;28;20254;-55
2022/03/22 17:36:24;;;;;;;24.00;13.80;;;;;;;8.23;45.60;97908.91;10406405;28;20616;-59
2022/03/22 17:41:25;;;;;;;21.37;12.13;;;;;;;7.91;46.98;97922.50;10407554;28;20222;-55
2022/03/22 17:46:26;;;;;;;39.80;20.90;;;;;;;7.66;48.05;97934.69;10405903;28;20229;-56
2022/03/22 17:51:26;;;;;;;25.70;12.63;;;;;;;7.02;49.92;97962.59;10405167;28;20189;-58
2022/03/22 17:56:27;;;;;;;22.87;13.70;;;;;;;6.84;51.26;97994.13;10407601;28;20303;-54
2022/03/22 18:01:28;;;;;;;26.63;14.50;;;;;;;6.55;51.93;97985.63;10406885;28;20223;-57
2022/03/22 18:06:28;;;;;;;19.40;12.13;;;;;;;5.87;54.31;98021.09;10404730;28;20231;-54
2022/03/22 18:11:44;;;;;;;22.13;10.53;;;;;;;5.62;55.21;98021.75;10406805;28;20196;-53
2022/03/22 18:16:47;;;;;;;19.87;10.00;;;;;;;5.38;55.74;98021.47;10406468;28;20208;-54
2022/03/22 18:21:49;;;;;;;29.93;15.30;;;;;;;5.28;55.80;98011.63;10408629;28;20267;-55
2022/03/22 18:26:50;;;;;;;22.20;12.93;;;;;;;4.94;57.70;98041.31;10408156;28;20259;-56
2022/03/22 18:31:50;;;;;;;23.87;10.77;;;;;;;4.87;58.60;98042.59;10393070;28;20703;-58
2022/03/22 18:36:51;;;;;;;34.50;14.57;;;;;;;5.02;58.07;98020.09;10385826;28;20291;-51
2022/03/22 18:41:52;;;;;;;23.63;10.97;;;;;;;4.99;58.55;98015.91;10408263;28;20667;-51
2022/03/22 18:46:52;;;;;;;17.17;9.20;;;;;;;5.00;58.20;98008.03;10389407;28;20249;-52
2022/03/22 18:51:53;;;;;;;15.67;7.97;;;;;;;4.75;58.66;98015.59;10403227;28;20647;-51
2022/03/22 18:56:53;;;;;;;15.47;8.03;;;;;;;4.59;59.06;98013.84;10412119;28;20621;-52
2022/03/22 19:01:54;;;;;;;19.60;10.67;;;;;;;4.27;59.32;98010.44;10413729;28;20257;-53
2022/03/22 19:06:55;;;;;;;17.60;10.47;;;;;;;3.78;60.41;98033.84;10414791;28;20695;-54
2022/03/22 19:11:55;;;;;;;18.00;9.93;;;;;;;3.65;61.68;98047.47;10415630;28;20650;-52
2022/03/22 19:22:15;;;;;;;19.30;10.33;;;;;;;3.47;62.96;98063.97;10416261;28;20568;-54
2022/03/22 19:27:16;;;;;;;13.97;9.17;;;;;;;3.37;63.04;98053.25;10416019;28;20220;-52
2022/03/22 19:37:35;;;;;;;19.17;8.60;;;;;;;2.95;64.39;98052.72;10415529;28;20212;-55
2022/03/22 19:42:36;;;;;;;18.47;9.37;;;;;;;2.93;64.50;98058.91;10414164;28;20196;-52
2022/03/22 19:47:36;;;;;;;17.43;8.70;;;;;;;2.71;64.85;98062.53;10412649;28;20319;-54
2022/03/22 19:52:36;;;;;;;17.80;9.53;;;;;;;2.45;66.27;98077.53;10414624;28;20193;-57
2022/03/22 19:57:38;;;;;;;22.37;9.47;;;;;;;2.38;66.36;98073.56;10414298;28;20647;-56
2022/03/22 20:02:39;;;;;;;20.33;8.90;;;;;;;2.46;65.52;98043.00;10414168;28;20205;-56
2022/03/22 20:07:41;;;;;;;16.00;9.33;;;;;;;2.41;66.08;98055.31;10410474;28;20221;-56
2022/03/22 20:12:41;;;;;;;18.77;9.67;;;;;;;2.17;67.53;98075.38;10414562;28;20203;-52
2022/03/22 20:17:43;;;;;;;17.20;9.17;;;;;;;2.19;66.92;98057.22;10414130;28;20686;-53
2022/03/22 20:22:43;;;;;;;15.50;9.23;;;;;;;2.07;67.87;98074.16;10414588;28;20206;-52
2022/03/22 20:27:45;;;;;;;16.33;8.90;;;;;;;2.03;67.70;98063.09;10413664;28;20220;-51
2022/03/22 20:32:45;;;;;;;16.57;8.73;;;;;;;1.95;68.36;98075.53;10413688;28;20189;-51
2022/03/22 20:37:46;;;;;;;19.60;8.97;;;;;;;1.71;69.63;98086.03;10413114;28;20344;-54
2022/03/22 20:42:47;;;;;;;19.33;9.87;;;;;;;1.50;70.19;98094.72;10413786;28;20582;-52
2022/03/22 20:47:54;;;;;;;13.00;8.20;;;;;;;1.42;70.85;98080.41;10411677;28;20216;-52
2022/03/22 20:52:54;;;;;;;15.53;8.83;;;;;;;1.29;71.35;98071.50;10403230;28;20195;-51
2022/03/22 21:03:13;;;;;;;25.47;8.63;;;;;;;1.29;71.71;98068.91;10412584;28;20189;-55
2022/03/22 21:08:14;;;;;;;12.83;7.83;;;;;;;1.15;72.78;98082.41;10411958;28;20231;-51
2022/03/22 21:13:14;;;;;;;18.53;8.37;;;;;;;1.13;73.10;98073.03;10412088;28;20201;-54
2022/03/22 21:18:14;;;;;;;13.13;7.77;;;;;;;1.00;73.09;98072.72;10411453;28;20297;-52
2022/03/22 21:23:15;;;;;;;15.17;7.60;;;;;;;0.94;73.80;98073.81;10412077;28;20192;-52
2022/03/22 21:28:16;;;;;;;13.23;7.40;;;;;;;0.95;73.56;98066.88;10411533;28;20318;-52
2022/03/22 21:33:24;;;;;;;15.90;7.43;;;;;;;0.82;73.67;98056.25;10410563;28;20201;-56
2022/03/22 21:38:25;;;;;;;14.67;7.83;;;;;;;0.79;73.84;98048.63;10397634;28;20214;-55
2022/03/22 21:43:26;;;;;;;12.97;7.67;;;;;;;0.71;73.99;98036.06;10437013;28;20236;-56
2022/03/22 21:48:26;;;;;;;13.20;8.00;;;;;;;0.94;72.18;98011.06;10410391;28;20263;-53
2022/03/22 21:53:26;;;;;;;13.37;7.50;;;;;;;0.82;73.63;98020.13;10411253;28;20562;-56
2022/03/22 21:58:27;;;;;;;11.67;7.60;;;;;;;0.80;73.72;98016.78;10411060;28;20216;-53
2022/03/22 22:03:28;;;;;;;13.17;7.87;;;;;;;0.72;74.08;98014.53;10410062;28;20327;-55
2022/03/22 22:08:28;;;;;;;11.87;7.67;;;;;;;0.83;73.95;98016.66;10410144;28;20244;-53
2022/03/22 22:13:28;;;;;;;16.87;8.30;;;;;;;0.80;73.60;98007.31;10410395;28;20217;-51
2022/03/22 22:18:32;;;;;;;17.53;9.60;;;;;;;0.89;72.45;97977.72;10410575;28;20263;-54
2022/03/22 22:23:35;;;;;;;24.43;12.43;;;;;;;0.74;72.75;97968.03;10410748;28;20257;-57
2022/03/22 22:28:35;;;;;;;21.37;11.63;;;;;;;0.81;72.88;97975.44;10410246;28;20225;-55
2022/03/22 22:38:54;;;;;;;14.40;7.97;;;;;;;0.91;72.08;97960.41;10392963;28;20215;-55
2022/03/22 22:43:55;;;;;;;13.60;7.30;;;;;;;0.99;72.04;97960.09;10409635;28;20192;-52
2022/03/22 22:48:55;;;;;;;15.07;8.10;;;;;;;1.25;70.88;97936.53;10429233;22;20319;-59
2022/03/22 22:53:55;;;;;;;13.50;7.83;;;;;;;1.12;71.20;97943.16;10409720;28;20196;-57
2022/03/22 22:58:57;;;;;;;19.57;8.00;;;;;;;1.47;69.45;97899.44;10410205;28;20217;-61
2022/03/22 23:03:57;;;;;;;13.77;7.60;;;;;;;1.14;70.91;97948.25;10409683;28;20209;-59
2022/03/22 23:14:16;;;;;;;12.20;6.10;;;;;;;1.06;71.49;97961.50;10409512;28;20683;-59
2022/03/22 23:19:17;;;;;;;13.37;7.13;;;;;;;0.90;72.21;97974.19;10409786;28;20214;-60
2022/03/22 23:24:18;;;;;;;13.13;7.90;;;;;;;0.98;71.73;97960.97;10409708;28;20197;-59
2022/03/22 23:29:18;;;;;;;18.17;8.80;;;;;;;0.85;71.74;97971.00;10409128;28;20215;-59
2022/03/22 23:34:19;;;;;;;15.30;7.47;;;;;;;0.62;72.94;97971.97;10409883;28;20189;-59
2022/03/22 23:39:20;;;;;;;16.60;9.17;;;;;;;0.20;75.34;98012.28;10409463;28;20252;-61
2022/03/22 23:44:20;;;;;;;18.43;8.93;;;;;;;0.14;75.90;98012.53;10414886;28;20193;-60
2022/03/22 23:49:21;;;;;;;13.97;6.80;;;;;;;0.80;73.06;97954.88;10416563;28;20263;-58
2022/03/22 23:54:22;;;;;;;13.30;5.97;;;;;;;1.25;70.42;97909.91;10416840;28;20560;-60
2022/03/22 23:59:22;;;;;;;7.63;4.87;;;;;;;1.64;68.94;97874.56;10416468;28;20231;-58
